• Join FlightAware (Why Join?)
  • Login
  • US Flag 
10:10AM EDT


 

Airport Tracker/Info


-or-


 

Live Flight TrackerFlight Track Log ✈ ABX555 ✈ 20-Aug-2013 ✈ KCVG - KBWI

Flight Track Log - Related Links

Times and Time Zones

All times are in EDT time to prevent confusion due to time zone crossing. See the ABX555 flight status page for this flight to view local times or setup timezone preferences in your user account.

Time Position Orientation Groundspeed Altitude Reporting Facility
EDT Latitude Longitude Course Direction KTS MPH feet Rate Location/Type
05:30AM 39.0500 -84.6833 270° West 151 174 1,300  Level Cincinnati TRACON
05:31AM 39.0500 -84.7333 270° West 159 183 2,900 1,800 Climbing Cincinnati TRACON
05:32AM 39.0500 -84.8167 270° West 248 285 5,000 2,340 Climbing Cincinnati TRACON
05:33AM 39.0000 -84.8667 218° Southwest 293 337 7,600 2,520 Climbing Cincinnati TRACON
05:35AM 38.9450 -84.6417 107° East 336 387 13,400 2,640 Climbing Indianapolis Center
05:36AM 38.9319 -84.5108 97° East 363 418 16,400 2,760 Climbing Indianapolis Center
05:37AM 38.9156 -84.3725 99° East 387 445 19,000 2,580 Climbing Indianapolis Center
05:38AM 38.8997 -84.2281 98° East 403 464 21,700 2,160 Climbing Indianapolis Center
05:39AM 38.8822 -84.0769 98° East 426 490 23,400 1,980 Climbing Indianapolis Center
05:40AM 38.8528 -83.9228 104° East 444 511 25,800 2,280 Climbing Indianapolis Center
05:41AM 38.8189 -83.7667 106° East 453 521 28,000 2,040 Climbing Indianapolis Center
05:42AM 38.7881 -83.6050 104° East 464 534 30,000 1,980 Climbing Indianapolis Center
05:43AM 38.7844 -83.4319 91° East 481 554 32,000 2,040 Climbing Indianapolis Center
05:44AM 38.7842 -83.2569 90° East 488 562 34,200 1,440 Climbing Indianapolis Center
05:45AM 38.7839 -83.0975 90° East 483 556 35,000 240 Climbing Indianapolis Center
05:47AM 38.7814 -82.7539 90° East 481 554 35,000  Level Indianapolis Center
05:48AM 38.7800 -82.5831 91° East 479 551 35,000  Level Indianapolis Center
05:49AM 38.7783 -82.4108 91° East 481 554 35,000  Level Indianapolis Center
05:50AM 38.7761 -82.2394 91° East 482 555 35,000  Level Indianapolis Center
05:51AM 38.7744 -82.0667 91° East 483 556 35,000  Level Indianapolis Center
05:52AM 38.7722 -81.8942 91° East 484 557 35,000  Level Indianapolis Center
05:53AM 38.7703 -81.7197 91° East 487 560 35,000  Level Indianapolis Center
05:54AM 38.7647 -81.5206 92° East 489 563 35,000  Level Indianapolis Center
05:55AM 38.7625 -81.3606 91° East 485 558 35,000  Level Indianapolis Center
05:56AM 38.7589 -81.1828 91° East 489 563 35,000  Level Indianapolis Center
05:57AM 38.7550 -81.0072 92° East 491 565 35,000  Level Indianapolis Center
05:58AM 38.7508 -80.8325 92° East 491 565 35,000  Level Indianapolis Center
05:59AM 38.7469 -80.6578 92° East 490 564 35,000  Level Indianapolis Center
06:00AM 38.7408 -80.4828 93° East 493 567 35,000  Level Indianapolis Center
06:01AM 38.7378 -80.3069 91° East 496 571 35,000  Level Indianapolis Center
06:02AM 38.7297 -80.1325 93° East 492 566 35,000  Level Indianapolis Center
06:03AM 38.7272 -79.9569 91° East 493 567 35,000  Level Indianapolis Center
06:04AM 38.7231 -79.8014 92° East 485 558 35,000  Level Washington Center
06:05AM 38.7186 -79.6228 92° East 485 558 35,000  Level Washington Center
06:06AM 38.7097 -79.4494 94° East 485 558 35,000  Level Washington Center
06:07AM 38.7033 -79.2522 92° East 496 571 35,000 -360 Level Washington Center
06:08AM 38.6919 -79.0733 95° East 501 577 34,300 -540 Descending Washington Center
06:09AM 38.6867 -78.8975 92° East 501 577 34,000 -420 Descending Washington Center
06:10AM 38.6786 -78.7322 94° East 490 564 33,500 -1,920 Descending Washington Center
06:11AM 38.6725 -78.5592 93° East 485 558 30,300 -2,940 Descending Washington Center
06:12AM 38.6642 -78.3861 93° East 485 558 27,600 -2,640 Descending Washington Center
06:13AM 38.6575 -78.2211 93° East 480 552 25,000 -2,580 Descending Washington Center
06:14AM 38.6503 -78.0639 93° East 462 532 22,400 -2,640 Descending Washington Center
06:15AM 38.6428 -77.9147 94° East 439 505 19,900 -2,040 Descending Washington Center
06:16AM 38.6456 -77.7714 89° East 419 482 18,500 -1,200 Descending Washington Center
06:17AM 38.6500 -77.6167 88° East 397 457 17,500 -900 Descending Potomac TRACON
06:18AM 38.6667 -77.5000 80° East 386 444 16,800 -840 Descending Potomac TRACON
06:19AM 38.6667 -77.3833 90° East 380 437 16,000 -900 Descending Potomac TRACON
06:20AM 38.6833 -77.2500 81° East 383 441 15,200 -1,500 Descending Potomac TRACON
06:21AM 38.6833 -77.1333 90° East 368 423 13,200 -1,680 Descending Potomac TRACON
06:22AM 38.7000 -77.0000 81° East 342 394 11,700 -1,320 Descending Potomac TRACON
06:23AM 38.7000 -76.8833 90° East 316 364 10,600 -1,260 Descending Potomac TRACON
06:24AM 38.7000 -76.8000 90° East 292 336 9,500 -1,200 Descending Potomac TRACON
06:25AM 38.7167 -76.7000 78° East 287 330 8,500 -1,200 Descending Potomac TRACON
06:26AM 38.7667 -76.6167 52° Northeast 280 322 7,300 -1,200 Descending Potomac TRACON
06:26AM 38.8000 -76.5500 57° Northeast 271 312 6,300 -1,260 Descending Potomac TRACON
06:27AM 38.8500 -76.5000 38° Northeast 252 290 5,000 -1,200 Descending Potomac TRACON
06:28AM 38.9167 -76.4833 11° North 244 281 4,000 -900 Descending Potomac TRACON
06:29AM 38.9833 -76.4667 11° North 217 250 3,300 -660 Descending Potomac TRACON
06:30AM 39.0333 -76.4333 27° Northeast 211 243 2,700 -720 Descending Potomac TRACON
06:31AM 39.0833 -76.4333 360° North 198 228 2,000 -420 Descending Potomac TRACON
06:32AM 39.1333 -76.4500 346° North 172 198 2,000  Level Potomac TRACON
06:33AM 39.1500 -76.5000 293° West 170 196 2,000 -240 Level Potomac TRACON
06:34AM 39.1667 -76.5500 293° West 150 173 1,600 -540 Descending Potomac TRACON
06:35AM 39.1667 -76.6000 270° West 126 145 1,000 -600 Descending Potomac TRACON
06:37AM 39.1667 -76.6667 281° West  Level FlightAware Approximate
06:44AM 39.1754 -76.6683 281° West  Level Estimated
06:45AM 39.1754 -76.6683 281° West  Level Estimated